Hazelton, Kansas
Current Conditions -  °F | °C
As of 4:35 AM on Monday 22 Dec 2014 (Local Time) from KAVK Reporting Station
Haze Haze  
Wind Chill: 42°   Ceiling: 1800
Heat Index: 45°   Visibility: 3mi
Dew Point: 45°   Wind: 5mph
Humidity: 100%   Direction: 200°SSW
Pressure: 29.55"   Gusts: NA
Location:  37.09°N, 98.4°W
Report Text: KAVK 221035Z AUTO 20004KT 3SM BR BKN018 OVC022 07/07 A2955 RMK AO2
Loading
Personal Weather Stations






























Interactive Weather Map New forecast layout! Learn more

10-Day Weather Forecast

Advertisements
Track Severe Weather on mobile